Time;durP1;ratioP1;P1;durP2;ratioP2;P2;SDS_P1;SDS_P2;PMS_P1;PMS_P2;Temp;Humidity;BMP_temperature;BMP_pressure;BME280_temperature;BME280_humidity;BME280_pressure;Samples;Min_cycle;Max_cycle;Signal;HPM_P1;HPM_P2
2021/12/27 00:00:19;;;;;;;50.20;22.10;;;;;;;-2.55;85.57;97187.88;6254087;28;20319;-70
2021/12/27 00:03:21;;;;;;;47.27;20.87;;;;;;;-2.51;85.32;97173.13;6222235;28;20232;-69
2021/12/27 00:06:24;;;;;;;44.30;20.00;;;;;;;-2.48;85.11;97191.91;6227676;28;20695;-69
2021/12/27 00:09:26;;;;;;;49.17;22.07;;;;;;;-2.45;85.35;97185.78;6248473;28;20358;-69
2021/12/27 00:12:28;;;;;;;54.17;21.50;;;;;;;-2.46;85.20;97174.63;6251751;28;20668;-70
2021/12/27 00:15:30;;;;;;;48.27;20.47;;;;;;;-2.50;85.04;97180.81;6252465;28;20260;-69
2021/12/27 00:18:32;;;;;;;46.37;19.63;;;;;;;-2.50;85.11;97183.41;6253943;28;20219;-69
2021/12/27 00:21:34;;;;;;;45.40;19.80;;;;;;;-2.47;85.10;97183.25;6250949;28;20322;-69
2021/12/27 00:24:36;;;;;;;45.93;21.80;;;;;;;-2.46;85.22;97186.69;6252497;28;20380;-69
2021/12/27 00:27:38;;;;;;;53.97;21.53;;;;;;;-2.50;84.92;97183.41;6253063;28;20222;-69
2021/12/27 00:30:40;;;;;;;50.37;19.93;;;;;;;-2.51;84.96;97183.44;6251010;28;20698;-69
2021/12/27 00:33:42;;;;;;;43.63;19.10;;;;;;;-2.52;85.05;97174.00;6231620;28;20224;-70
2021/12/27 00:36:44;;;;;;;49.07;19.67;;;;;;;-2.52;85.04;97179.19;6228329;28;20231;-71
2021/12/27 00:39:46;;;;;;;44.73;19.00;;;;;;;-2.52;84.92;97172.28;6249937;28;20227;-70
2021/12/27 00:42:50;;;;;;;40.07;17.83;;;;;;;-2.50;84.90;97175.66;6255892;28;20223;-70
2021/12/27 00:45:52;;;;;;;48.60;20.27;;;;;;;-2.50;84.91;97170.47;6251207;28;20326;-69
2021/12/27 00:48:55;;;;;;;45.73;19.97;;;;;;;-2.50;84.61;97160.16;6233439;28;20223;-69
2021/12/27 00:51:57;;;;;;;46.70;21.53;;;;;;;-2.47;84.47;97169.50;6231294;28;20221;-68
2021/12/27 00:54:59;;;;;;;44.03;19.20;;;;;;;-2.52;84.74;97174.00;6252336;28;20300;-69
2021/12/27 00:58:01;;;;;;;39.70;19.23;;;;;;;-2.56;84.08;97173.25;6251274;28;20522;-69
2021/12/27 01:01:04;;;;;;;42.30;18.53;;;;;;;-2.59;84.33;97175.13;6249959;28;20239;-69
2021/12/27 01:04:07;;;;;;;35.10;18.93;;;;;;;-2.58;84.43;97177.63;6237584;28;20220;-69
2021/12/27 01:07:09;;;;;;;38.10;18.40;;;;;;;-2.53;84.39;97177.47;6243054;28;20354;-69
2021/12/27 01:13:23;;;;;;;39.53;18.27;;;;;;;-2.52;84.57;97182.59;6250687;28;20235;-70
2021/12/27 01:16:25;;;;;;;37.77;20.23;;;;;;;-2.54;84.35;97180.97;6252778;28;22486;-70
2021/12/27 01:19:27;;;;;;;35.17;17.37;;;;;;;-2.55;84.07;97181.84;6250713;28;20243;-69
2021/12/27 01:22:29;;;;;;;32.47;17.17;;;;;;;-2.53;84.33;97178.31;6251942;28;20230;-69
2021/12/27 01:25:31;;;;;;;42.83;18.40;;;;;;;-2.50;83.97;97187.72;6248828;28;20644;-69
2021/12/27 01:28:33;;;;;;;33.20;18.17;;;;;;;-2.50;84.08;97193.72;6250430;28;20223;-70
2021/12/27 01:31:35;;;;;;;35.97;18.60;;;;;;;-2.50;84.20;97193.72;6251950;28;20231;-69
2021/12/27 01:34:37;;;;;;;35.47;19.27;;;;;;;-2.47;84.06;97192.75;6232998;28;20229;-71
2021/12/27 01:37:40;;;;;;;37.20;19.03;;;;;;;-2.46;83.81;97190.13;6239247;28;20261;-70
2021/12/27 01:40:44;;;;;;;33.83;17.23;;;;;;;-2.48;84.02;97191.91;6256997;28;20238;-69
2021/12/27 01:43:52;;;;;;;33.90;18.57;;;;;;;-2.48;83.85;97197.06;6257026;28;20231;-69
2021/12/27 01:46:54;;;;;;;33.47;18.27;;;;;;;-2.46;84.04;97189.28;6253564;28;20253;-69
2021/12/27 01:49:56;;;;;;;37.23;19.90;;;;;;;-2.44;83.96;97187.47;6231179;28;20258;-69
2021/12/27 01:52:58;;;;;;;42.13;19.63;;;;;;;-2.44;83.55;97190.06;6231832;28;20228;-69
2021/12/27 01:56:00;;;;;;;35.60;19.50;;;;;;;-2.44;83.83;97187.47;6251031;28;20360;-69
2021/12/27 01:59:04;;;;;;;45.07;21.50;;;;;;;-2.43;83.84;97186.59;6254572;28;20380;-68
2021/12/27 02:02:05;;;;;;;34.87;19.27;;;;;;;-2.41;83.81;97182.22;6255914;28;20711;-69
2021/12/27 02:05:08;;;;;;;33.23;17.90;;;;;;;-2.42;83.58;97176.19;6246211;28;20224;-69
2021/12/27 02:08:11;;;;;;;38.60;20.10;;;;;;;-2.41;84.10;97172.72;6255101;28;20267;-69
2021/12/27 02:11:16;;;;;;;37.13;19.50;;;;;;;-2.39;83.69;97170.06;6255729;28;20264;-70
2021/12/27 02:14:18;;;;;;;40.07;20.47;;;;;;;-2.40;83.93;97163.22;6255086;28;20631;-70
2021/12/27 02:17:21;;;;;;;42.10;19.80;;;;;;;-2.41;83.59;97177.88;6254125;28;20231;-69
2021/12/27 02:20:28;;;;;;;32.50;16.60;;;;;;;-2.41;83.60;97170.13;6253638;28;20239;-72
2021/12/27 02:23:30;;;;;;;45.97;20.67;;;;;;;-2.40;83.88;97169.25;6255550;28;20295;-69
2021/12/27 02:26:32;;;;;;;39.27;18.83;;;;;;;-2.42;83.93;97171.03;6254328;28;20361;-68
2021/12/27 02:29:34;;;;;;;36.83;18.97;;;;;;;-2.42;83.74;97165.88;6256523;28;20357;-69
2021/12/27 02:32:52;;;;;;;43.57;19.73;;;;;;;-2.41;84.11;97164.97;6237193;28;20531;-70
2021/12/27 02:35:57;;;;;;;42.50;21.37;;;;;;;-2.43;83.83;97159.00;6188726;28;20539;-69
2021/12/27 02:38:59;;;;;;;38.57;20.17;;;;;;;-2.44;83.65;97156.47;6219562;28;20227;-72
2021/12/27 02:42:01;;;;;;;35.73;18.80;;;;;;;-2.45;83.66;97159.97;6253342;28;20223;-69
2021/12/27 02:45:04;;;;;;;43.47;20.77;;;;;;;-2.44;83.86;97159.06;6255161;28;20331;-70
2021/12/27 02:48:08;;;;;;;33.97;18.07;;;;;;;-2.45;84.00;97162.53;6241968;28;20705;-68
2021/12/27 02:51:10;;;;;;;35.23;20.03;;;;;;;-2.43;83.70;97164.19;6229646;28;20215;-69
2021/12/27 02:54:12;;;;;;;46.53;22.93;;;;;;;-2.40;83.73;97155.47;6230104;28;20222;-69
2021/12/27 02:57:15;;;;;;;38.30;19.93;;;;;;;-2.42;83.58;97152.94;6244624;28;20223;-70
2021/12/27 03:00:23;;;;;;;33.90;18.23;;;;;;;-2.44;83.65;97151.31;6254247;28;20242;-69
2021/12/27 03:03:27;;;;;;;42.00;22.27;;;;;;;-2.43;83.63;97155.59;6244904;28;20362;-71
2021/12/27 03:06:29;;;;;;;45.00;20.90;;;;;;;-2.47;83.28;97151.41;6234980;28;20314;-69
2021/12/27 03:09:31;;;;;;;39.73;20.53;;;;;;;-2.49;83.57;97150.63;6254770;28;20229;-70
2021/12/27 03:12:33;;;;;;;39.23;21.43;;;;;;;-2.48;83.48;97147.16;6251815;28;20551;-69
2021/12/27 03:15:35;;;;;;;35.53;21.17;;;;;;;-2.46;83.55;97146.19;6204912;28;20235;-68
2021/12/27 03:18:41;;;;;;;46.73;22.53;;;;;;;-2.46;83.64;97146.19;6246321;28;20235;-69
2021/12/27 03:21:43;;;;;;;39.07;21.60;;;;;;;-2.48;83.70;97148.00;6252941;28;20663;-69
2021/12/27 03:24:45;;;;;;;43.77;22.67;;;;;;;-2.49;83.51;97142.88;6254403;28;20651;-70
2021/12/27 03:27:47;;;;;;;44.40;21.57;;;;;;;-2.45;83.21;97139.28;6252298;28;20652;-69
2021/12/27 03:30:50;;;;;;;35.47;19.47;;;;;;;-2.47;83.33;97135.91;6254057;28;20597;-70
2021/12/27 03:33:55;;;;;;;41.50;22.50;;;;;;;-2.47;83.62;97131.59;6236547;28;20226;-69
2021/12/27 03:36:57;;;;;;;39.10;21.20;;;;;;;-2.44;83.51;97134.06;6231464;28;20358;-69
2021/12/27 03:39:59;;;;;;;37.33;21.43;;;;;;;-2.42;83.40;97129.69;6254436;28;20234;-71
2021/12/27 03:43:02;;;;;;;39.23;21.77;;;;;;;-2.42;83.40;97127.13;6251679;28;20671;-69
2021/12/27 03:46:04;;;;;;;37.33;21.53;;;;;;;-2.40;83.63;97124.47;6252843;28;20238;-70
2021/12/27 03:49:06;;;;;;;37.43;20.80;;;;;;;-2.39;83.69;97129.56;6231773;28;20232;-68
2021/12/27 03:52:08;;;;;;;42.13;21.43;;;;;;;-2.38;83.31;97130.41;6241390;28;20235;-70
2021/12/27 03:55:11;;;;;;;36.03;19.33;;;;;;;-2.38;83.48;97122.66;6253840;28;20246;-70
2021/12/27 03:58:25;;;;;;;37.43;20.50;;;;;;;-2.36;83.55;97121.69;6252899;28;20227;-69
2021/12/27 04:01:28;;;;;;;36.47;21.67;;;;;;;-2.38;83.55;97117.47;6251020;28;20231;-69
2021/12/27 04:04:33;;;;;;;35.20;19.63;;;;;;;-2.39;83.66;97116.63;6238474;28;20244;-69
2021/12/27 04:07:40;;;;;;;42.53;18.63;;;;;;;-2.37;83.43;97114.00;6253007;28;20702;-69
2021/12/27 04:10:42;;;;;;;34.33;18.40;;;;;;;-2.37;83.45;97116.59;6252783;28;20219;-69
2021/12/27 04:13:44;;;;;;;36.20;19.87;;;;;;;-2.37;83.52;97121.75;6253245;28;20451;-72
2021/12/27 04:16:49;;;;;;;28.33;17.40;;;;;;;-2.40;83.41;97121.91;6251994;28;20227;-68
2021/12/27 04:19:51;;;;;;;32.87;19.07;;;;;;;-2.39;83.25;97123.53;6251770;28;20361;-68
2021/12/27 04:22:53;;;;;;;36.37;20.20;;;;;;;-2.40;83.49;97127.91;6250933;28;20321;-69
2021/12/27 04:25:55;;;;;;;31.70;19.50;;;;;;;-2.43;83.18;97125.44;6251863;28;20265;-69
2021/12/27 04:28:57;;;;;;;34.20;18.70;;;;;;;-2.47;83.31;97118.69;6251904;28;20226;-74
2021/12/27 04:31:59;;;;;;;31.23;20.23;;;;;;;-2.51;83.42;97117.13;6252571;28;20230;-70
2021/12/27 04:35:02;;;;;;;36.47;21.23;;;;;;;-2.55;83.43;97107.78;6211025;28;20243;-68
2021/12/27 04:38:05;;;;;;;33.43;18.97;;;;;;;-2.58;83.04;97109.63;6226765;28;20231;-71
2021/12/27 04:41:07;;;;;;;33.27;18.37;;;;;;;-2.59;83.56;97108.78;6247438;28;20231;-69
2021/12/27 04:44:09;;;;;;;32.07;18.63;;;;;;;-2.57;82.98;97111.34;6250947;28;20241;-69
2021/12/27 04:47:15;;;;;;;32.40;18.10;;;;;;;-2.57;83.18;97107.00;6244370;28;20239;-70
2021/12/27 04:50:18;;;;;;;34.03;19.03;;;;;;;-2.53;83.17;97108.59;6237805;28;20254;-69
2021/12/27 04:53:21;;;;;;;27.13;16.30;;;;;;;-2.48;83.37;97104.06;6249993;28;20229;-69
2021/12/27 04:56:23;;;;;;;29.43;16.80;;;;;;;-2.48;83.18;97103.22;6250253;28;20223;-70
2021/12/27 04:59:25;;;;;;;25.13;16.40;;;;;;;-2.47;83.17;97108.34;6251361;28;20245;-69
2021/12/27 05:02:27;;;;;;;29.43;17.87;;;;;;;-2.44;83.65;97115.16;6252374;28;20352;-69
2021/12/27 05:05:31;;;;;;;30.23;18.63;;;;;;;-2.45;83.52;97113.47;6247474;28;20568;-69
2021/12/27 05:08:33;;;;;;;31.00;18.97;;;;;;;-2.48;83.28;97111.81;6252112;28;20235;-70
2021/12/27 05:11:35;;;;;;;32.27;18.93;;;;;;;-2.49;83.48;97112.72;6250661;28;20326;-68
2021/12/27 05:14:37;;;;;;;30.27;18.67;;;;;;;-2.51;83.37;97108.53;6254630;28;20239;-69
2021/12/27 05:17:39;;;;;;;29.80;18.90;;;;;;;-2.52;83.43;97107.69;6256208;28;20656;-69
2021/12/27 05:20:41;;;;;;;32.67;19.03;;;;;;;-2.51;83.30;97124.88;6239374;28;20239;-69
2021/12/27 05:23:43;;;;;;;30.37;17.80;;;;;;;-2.52;83.37;97117.19;6256761;28;20231;-69
2021/12/27 05:26:45;;;;;;;27.63;17.80;;;;;;;-2.52;83.20;97114.59;6255129;28;20584;-72
2021/12/27 05:29:47;;;;;;;28.37;16.63;;;;;;;-2.51;83.67;97119.72;6256400;28;20317;-69
2021/12/27 05:32:49;;;;;;;29.40;17.00;;;;;;;-2.49;83.48;97119.63;6249955;28;20231;-69
2021/12/27 05:35:51;;;;;;;28.37;17.17;;;;;;;-2.48;83.46;97122.16;6213766;28;20423;-69
2021/12/27 05:38:53;;;;;;;25.20;15.13;;;;;;;-2.46;83.13;97124.69;6222266;28;20239;-69
2021/12/27 05:41:55;;;;;;;25.00;16.33;;;;;;;-2.46;83.39;97112.63;6240951;28;20270;-69
2021/12/27 05:44:57;;;;;;;26.93;16.43;;;;;;;-2.43;83.13;97112.50;6257484;28;20368;-69
2021/12/27 05:47:59;;;;;;;31.13;17.53;;;;;;;-2.42;83.75;97109.03;6243289;28;20704;-69
2021/12/27 05:51:02;;;;;;;27.13;16.13;;;;;;;-2.39;83.54;97118.38;6229962;28;20281;-69
2021/12/27 05:54:04;;;;;;;27.97;16.80;;;;;;;-2.40;83.61;97117.56;6253660;28;20229;-69
2021/12/27 05:57:06;;;;;;;25.60;15.87;;;;;;;-2.40;83.31;97112.41;6254088;28;20226;-71
2021/12/27 06:00:11;;;;;;;29.03;16.10;;;;;;;-2.41;83.60;97109.88;6253911;28;20372;-69
2021/12/27 06:03:15;;;;;;;26.80;15.80;;;;;;;-2.43;83.62;97109.09;6249861;28;20301;-69
2021/12/27 06:06:17;;;;;;;25.33;15.60;;;;;;;-2.42;83.49;97111.63;6241462;28;20231;-69
2021/12/27 06:09:19;;;;;;;26.90;15.27;;;;;;;-2.43;83.06;97112.50;6245379;28;21010;-69
2021/12/27 06:12:21;;;;;;;25.23;15.70;;;;;;;-2.43;83.57;97106.50;6254080;28;20310;-69
2021/12/27 06:15:23;;;;;;;27.77;16.87;;;;;;;-2.43;83.72;97116.84;6255142;28;20230;-69
2021/12/27 06:18:25;;;;;;;25.90;15.30;;;;;;;-2.42;84.00;97111.63;6255302;28;20227;-69
2021/12/27 06:21:27;;;;;;;23.13;15.27;;;;;;;-2.40;83.77;97106.38;6255781;28;20600;-68
2021/12/27 06:24:29;;;;;;;24.33;14.50;;;;;;;-2.39;83.89;97098.56;6255222;28;20227;-69
2021/12/27 06:27:32;;;;;;;23.83;15.77;;;;;;;-2.37;83.01;97104.50;6255611;28;20318;-69
2021/12/27 06:30:34;;;;;;;28.03;17.37;;;;;;;-2.38;83.03;97108.00;6254901;28;20227;-70
2021/12/27 06:33:37;;;;;;;24.20;15.20;;;;;;;-2.39;83.73;97103.72;6245988;28;20605;-70
2021/12/27 06:36:38;;;;;;;24.23;15.80;;;;;;;-2.37;83.58;97107.09;6234806;28;20219;-69
2021/12/27 06:39:40;;;;;;;25.07;14.47;;;;;;;-2.36;84.00;97100.19;6253940;28;20768;-69
2021/12/27 06:42:43;;;;;;;23.43;15.07;;;;;;;-2.37;83.61;97104.50;6253205;28;20227;-69
2021/12/27 06:45:45;;;;;;;22.43;14.20;;;;;;;-2.34;83.51;97100.97;6252692;28;20227;-69
2021/12/27 06:48:47;;;;;;;22.47;14.67;;;;;;;-2.32;83.76;97105.19;6237109;28;20713;-72
2021/12/27 06:51:49;;;;;;;25.13;15.13;;;;;;;-2.33;83.57;97106.09;6230397;28;20228;-68
2021/12/27 06:54:52;;;;;;;26.33;15.67;;;;;;;-2.35;83.31;97107.88;6242383;28;20364;-69
2021/12/27 06:58:03;;;;;;;24.53;15.67;;;;;;;-2.35;83.57;97110.47;6255215;28;20235;-70
2021/12/27 07:01:06;;;;;;;25.17;16.07;;;;;;;-2.32;83.29;97112.09;6253841;28;20636;-69
2021/12/27 07:04:08;;;;;;;28.30;14.73;;;;;;;-2.30;83.70;97105.97;6244831;28;20255;-71
2021/12/27 07:07:10;;;;;;;24.83;15.97;;;;;;;-2.26;83.53;97097.19;6255211;28;20304;-71
2021/12/27 07:10:15;;;;;;;27.17;17.57;;;;;;;-2.27;83.52;97100.66;6256675;28;20698;-71
2021/12/27 07:13:17;;;;;;;31.00;18.03;;;;;;;-2.28;83.85;97100.72;6269125;28;20237;-71
2021/12/27 07:16:19;;;;;;;29.47;18.67;;;;;;;-2.28;83.74;97098.16;6252248;28;20706;-71
2021/12/27 07:19:21;;;;;;;27.30;16.57;;;;;;;-2.29;83.69;97099.03;6251613;28;20325;-70
2021/12/27 07:22:23;;;;;;;29.13;17.43;;;;;;;-2.26;83.70;97098.94;6253178;28;20292;-71
2021/12/27 07:25:24;;;;;;;26.70;16.47;;;;;;;-2.22;83.97;97102.25;6254732;28;20234;-71
2021/12/27 07:28:27;;;;;;;26.67;16.53;;;;;;;-2.17;83.98;97102.91;6253958;28;20223;-71
2021/12/27 07:31:29;;;;;;;28.30;18.00;;;;;;;-2.11;83.74;97097.50;6253126;28;20262;-70
2021/12/27 07:34:31;;;;;;;26.07;16.17;;;;;;;-2.08;83.41;97089.59;6220868;28;20233;-71
2021/12/27 07:37:34;;;;;;;32.90;17.50;;;;;;;-2.04;83.50;97089.44;6227178;28;20242;-70
2021/12/27 07:40:36;;;;;;;28.20;17.13;;;;;;;-2.00;83.42;97096.19;6246367;28;20235;-71
2021/12/27 07:43:38;;;;;;;29.90;17.20;;;;;;;-1.97;83.43;97084.84;6254029;28;20235;-71
2021/12/27 07:46:41;;;;;;;27.17;16.97;;;;;;;-1.90;83.42;97094.06;6249506;28;20233;-71
2021/12/27 07:49:43;;;;;;;31.43;17.90;;;;;;;-1.87;83.37;97088.75;6237072;28;20317;-71
2021/12/27 07:52:45;;;;;;;30.53;17.07;;;;;;;-1.84;83.14;97083.47;6250922;28;20226;-72
2021/12/27 07:55:47;;;;;;;27.27;16.67;;;;;;;-1.74;83.10;97073.59;6251094;28;20706;-72
2021/12/27 07:58:49;;;;;;;31.03;17.67;;;;;;;-1.69;82.91;97069.88;6252566;28;20743;-71
2021/12/27 08:01:51;;;;;;;28.03;17.63;;;;;;;-1.61;82.97;97073.03;6252307;28;20241;-71
2021/12/27 08:04:55;;;;;;;25.07;16.23;;;;;;;-1.58;82.87;97077.19;6232933;28;20284;-71
2021/12/27 08:07:57;;;;;;;32.80;17.97;;;;;;;-1.58;83.00;97067.69;6244936;28;20357;-71
2021/12/27 08:10:59;;;;;;;27.47;17.30;;;;;;;-1.54;82.87;97073.59;6234679;28;20234;-71
2021/12/27 08:14:02;;;;;;;30.47;17.50;;;;;;;-1.55;82.58;97072.75;6250782;28;20703;-70
2021/12/27 08:17:04;;;;;;;28.70;17.60;;;;;;;-1.51;82.83;97076.06;6251667;28;20372;-70
2021/12/27 08:20:07;;;;;;;33.43;17.83;;;;;;;-1.45;82.96;97078.38;6250956;28;20238;-72
2021/12/27 08:23:09;;;;;;;28.43;17.80;;;;;;;-1.43;82.67;97070.56;6250693;28;20300;-71
2021/12/27 08:26:12;;;;;;;29.80;17.50;;;;;;;-1.42;82.43;97074.81;6252397;28;20321;-71
2021/12/27 08:29:14;;;;;;;31.17;18.57;;;;;;;-1.37;82.22;97071.13;6251711;28;20235;-70
2021/12/27 08:32:17;;;;;;;27.77;17.23;;;;;;;-1.37;82.28;97071.13;6251983;28;20226;-71
2021/12/27 08:35:20;;;;;;;28.97;18.07;;;;;;;-1.30;82.11;97075.16;6224958;28;20859;-71
2021/12/27 08:38:22;;;;;;;32.43;18.83;;;;;;;-1.23;82.10;97073.97;6241754;28;20730;-70
2021/12/27 08:41:27;;;;;;;27.80;16.17;;;;;;;-1.18;82.02;97084.09;6250581;28;20713;-71
2021/12/27 08:44:29;;;;;;;28.33;17.20;;;;;;;-1.20;81.78;97091.94;6250353;28;20289;-71
2021/12/27 08:47:31;;;;;;;31.07;17.67;;;;;;;-1.17;81.89;97083.22;6245815;28;20227;-71
2021/12/27 08:50:35;;;;;;;28.93;16.83;;;;;;;-1.13;81.71;97080.44;6233681;28;20769;-71
2021/12/27 08:53:38;;;;;;;28.57;16.27;;;;;;;-1.06;81.84;97075.81;6257268;28;20230;-71
2021/12/27 08:56:40;;;;;;;31.53;18.53;;;;;;;-0.98;81.43;97068.53;6255605;28;20231;-72
2021/12/27 08:59:43;;;;;;;29.47;17.40;;;;;;;-0.98;81.59;97065.94;6255934;28;20231;-71
2021/12/27 09:02:45;;;;;;;36.37;19.50;;;;;;;-0.93;81.42;97065.75;6254399;28;20235;-71
2021/12/27 09:05:48;;;;;;;32.57;18.47;;;;;;;-0.86;80.97;97068.00;6244350;28;20238;-72
2021/12/27 09:08:50;;;;;;;30.20;17.47;;;;;;;-0.83;80.77;97069.63;6257647;28;20593;-71
2021/12/27 09:11:52;;;;;;;31.83;18.83;;;;;;;-0.89;80.65;97065.53;6256659;28;20716;-71
2021/12/27 09:14:54;;;;;;;32.13;19.63;;;;;;;-0.84;80.46;97071.38;6254078;28;20701;-70
2021/12/27 09:17:57;;;;;;;32.70;20.10;;;;;;;-0.85;80.77;97067.09;6256774;28;20252;-71
2021/12/27 09:21:03;;;;;;;34.37;21.00;;;;;;;-0.71;80.87;97053.53;6255571;28;20235;-71
2021/12/27 09:24:05;;;;;;;35.43;20.70;;;;;;;-0.60;80.31;97055.63;6256084;28;20289;-70
2021/12/27 09:27:08;;;;;;;35.00;20.20;;;;;;;-0.58;80.04;97054.63;6254641;28;20604;-71
2021/12/27 09:30:10;;;;;;;30.17;19.07;;;;;;;-0.59;80.45;97045.19;6256421;28;20223;-70
2021/12/27 09:33:13;;;;;;;31.80;19.23;;;;;;;-0.65;79.69;97049.81;6244369;28;20432;-70
2021/12/27 09:36:14;;;;;;;33.70;19.53;;;;;;;-0.59;80.12;97041.75;6222205;28;20576;-71
2021/12/27 09:39:17;;;;;;;35.43;20.03;;;;;;;-0.52;80.18;97036.22;6255435;28;20207;-70
2021/12/27 09:42:23;;;;;;;35.43;20.13;;;;;;;-0.50;79.80;97023.19;6256145;28;20234;-71
2021/12/27 09:45:26;;;;;;;32.93;20.70;;;;;;;-0.62;79.74;97018.59;6253277;28;20227;-70
2021/12/27 09:48:28;;;;;;;33.73;21.27;;;;;;;-0.70;79.91;97016.34;6238591;28;20695;-71
2021/12/27 09:51:31;;;;;;;35.67;21.27;;;;;;;-0.71;79.75;97021.59;6246938;28;20608;-71
2021/12/27 09:54:33;;;;;;;33.93;21.17;;;;;;;-0.71;80.07;97019.84;6255645;28;20309;-71
2021/12/27 09:57:35;;;;;;;37.37;21.20;;;;;;;-0.62;80.02;97022.03;6255139;28;20234;-70
2021/12/27 10:00:37;;;;;;;35.93;20.63;;;;;;;-0.62;80.13;97018.59;6253784;28;20599;-71
2021/12/27 10:03:48;;;;;;;33.43;20.07;;;;;;;-0.62;80.14;97016.84;6250434;28;20231;-70
2021/12/27 10:06:52;;;;;;;36.00;20.53;;;;;;;-0.54;80.22;97013.88;6241850;28;20524;-71
2021/12/27 10:09:55;;;;;;;32.93;20.70;;;;;;;-0.42;80.05;97003.78;6256273;28;20360;-71
2021/12/27 10:12:57;;;;;;;36.77;19.77;;;;;;;-0.40;79.90;96999.34;6253734;28;20292;-70
2021/12/27 10:15:59;;;;;;;37.07;20.40;;;;;;;-0.42;79.50;97011.56;6253659;28;20703;-71
2021/12/27 10:19:05;;;;;;;32.80;20.80;;;;;;;-0.36;79.59;97010.41;6255789;28;20227;-70
2021/12/27 10:22:11;;;;;;;32.67;18.40;;;;;;;-0.40;79.25;97001.94;6253231;28;20244;-70
2021/12/27 10:25:19;;;;;;;33.00;20.40;;;;;;;-0.45;79.68;97014.28;6254132;28;20245;-70
2021/12/27 10:28:26;;;;;;;36.47;20.60;;;;;;;-0.39;79.86;97010.56;6253831;28;20588;-70
2021/12/27 10:31:28;;;;;;;29.40;18.40;;;;;;;-0.37;80.01;97011.31;6253257;28;20297;-70
2021/12/27 10:34:52;;;;;;;28.83;16.83;;;;;;;-0.32;79.49;97009.38;6226806;28;20604;-70
2021/12/27 10:38:22;;;;;;;30.50;17.63;;;;;;;-0.25;79.86;97018.53;6235222;28;20298;-69
2021/12/27 10:41:24;;;;;;;28.53;19.40;;;;;;;-0.25;79.81;97017.69;6248701;28;20317;-70
2021/12/27 10:44:26;;;;;;;27.70;17.83;;;;;;;-0.26;79.59;97021.19;6229897;28;20300;-70
2021/12/27 10:47:37;;;;;;;32.87;20.23;;;;;;;-0.32;79.53;97014.56;6229353;28;20235;-71
2021/12/27 10:50:40;;;;;;;32.57;19.70;;;;;;;-0.30;79.66;97006.72;6229031;28;20239;-70
2021/12/27 10:53:55;;;;;;;32.93;19.83;;;;;;;-0.26;79.36;97003.03;6249967;28;20238;-71
2021/12/27 10:57:02;;;;;;;35.10;20.07;;;;;;;-0.18;79.04;96999.16;6252718;28;20266;-70
2021/12/27 11:00:26;;;;;;;30.80;18.90;;;;;;;-0.06;79.02;96990.78;6236759;28;20227;-69
2021/12/27 11:03:36;;;;;;;31.97;18.50;;;;;;;-0.01;78.63;96988.81;6245547;28;20239;-71
2021/12/27 11:06:40;;;;;;;29.57;18.13;;;;;;;0.03;78.58;96986.88;6227775;28;20303;-69
2021/12/27 11:09:44;;;;;;;31.00;18.27;;;;;;;0.06;79.12;96989.34;6239070;28;20656;-70
2021/12/27 11:12:51;;;;;;;31.50;18.00;;;;;;;0.19;78.60;96990.41;6253278;28;20247;-69
2021/12/27 11:15:54;;;;;;;29.67;17.80;;;;;;;0.22;78.06;96986.81;6253063;28;20223;-70
2021/12/27 11:18:58;;;;;;;36.73;19.97;;;;;;;0.24;78.59;96978.03;6252707;28;20860;-69
2021/12/27 11:22:02;;;;;;;31.23;18.83;;;;;;;0.25;78.03;96971.94;6252791;28;20238;-70
2021/12/27 11:25:07;;;;;;;29.27;17.77;;;;;;;0.27;78.56;96962.31;6253304;28;20229;-70
2021/12/27 11:28:34;;;;;;;34.90;19.70;;;;;;;0.21;78.20;96961.78;6250235;28;20235;-71
2021/12/27 11:31:37;;;;;;;31.30;19.37;;;;;;;0.08;78.85;96969.34;6253340;28;20235;-71
2021/12/27 11:34:59;;;;;;;35.20;19.00;;;;;;;0.04;78.81;96970.41;6233539;28;20313;-70
2021/12/27 11:38:03;;;;;;;34.87;20.00;;;;;;;-0.01;78.75;96959.44;6244621;28;20833;-70
2021/12/27 11:41:27;;;;;;;34.07;20.00;;;;;;;0.05;79.39;96950.50;6254196;28;20931;-70
2021/12/27 11:44:45;;;;;;;32.13;20.47;;;;;;;0.07;79.34;96952.13;6253614;28;20643;-71
2021/12/27 11:48:05;;;;;;;31.20;18.50;;;;;;;0.15;79.08;96946.53;6242634;28;20730;-70
2021/12/27 11:51:10;;;;;;;29.73;18.13;;;;;;;0.18;79.05;96943.78;6227055;28;20228;-71
2021/12/27 11:54:27;;;;;;;31.47;18.77;;;;;;;0.30;78.95;96946.56;6235963;28;20717;-70
2021/12/27 11:57:52;;;;;;;34.00;19.70;;;;;;;0.51;79.21;96944.63;6250879;28;20770;-72
2021/12/27 12:01:01;;;;;;;30.40;18.97;;;;;;;0.69;78.43;96937.66;6251140;28;20317;-71
2021/12/27 12:04:03;;;;;;;31.07;19.43;;;;;;;0.84;78.06;96938.59;6243024;28;20301;-70
2021/12/27 12:07:07;;;;;;;32.10;18.33;;;;;;;0.85;77.54;96932.47;6253161;28;20230;-70
2021/12/27 12:10:14;;;;;;;30.00;18.03;;;;;;;0.85;78.03;96927.28;6252639;28;20718;-71
2021/12/27 12:13:26;;;;;;;28.47;17.73;;;;;;;0.90;77.52;96927.88;6250306;28;20294;-71
2021/12/27 12:16:46;;;;;;;29.37;18.07;;;;;;;0.96;77.71;96918.00;6252670;28;20682;-71
2021/12/27 12:19:50;;;;;;;33.77;18.47;;;;;;;0.96;77.22;96918.00;6251434;28;20769;-72
2021/12/27 12:23:12;;;;;;;32.03;17.33;;;;;;;1.06;76.86;96908.78;6252510;28;20258;-71
2021/12/27 12:26:14;;;;;;;30.60;18.33;;;;;;;1.23;76.79;96896.59;6253296;28;20741;-71
2021/12/27 12:29:16;;;;;;;26.20;17.27;;;;;;;1.43;76.19;96894.56;6250730;28;20717;-71
2021/12/27 12:32:18;;;;;;;29.67;17.97;;;;;;;1.56;75.34;96888.66;6233857;28;20629;-71
2021/12/27 12:35:41;;;;;;;28.63;17.57;;;;;;;1.61;75.05;96897.03;6208416;28;20711;-71
2021/12/27 12:38:43;;;;;;;28.83;18.17;;;;;;;1.67;75.35;96883.69;6232218;28;20232;-71
2021/12/27 12:41:45;;;;;;;28.87;17.20;;;;;;;1.73;74.67;96878.13;6250915;28;20756;-71
2021/12/27 12:44:55;;;;;;;29.37;17.30;;;;;;;1.56;74.07;96876.50;6251315;28;20238;-71
2021/12/27 12:48:05;;;;;;;29.93;17.83;;;;;;;1.69;74.70;96867.09;6213531;28;20266;-71
2021/12/27 12:51:07;;;;;;;29.93;17.13;;;;;;;1.86;73.50;96863.50;6227721;28;20350;-72
2021/12/27 12:54:32;;;;;;;28.90;17.77;;;;;;;1.96;73.37;96864.63;6246034;28;20292;-73
2021/12/27 12:57:34;;;;;;;30.50;16.23;;;;;;;1.99;73.72;96877.47;6252035;28;20717;-72
2021/12/27 13:00:36;;;;;;;29.33;17.03;;;;;;;2.11;73.17;96866.31;6251727;28;20604;-71
2021/12/27 13:03:39;;;;;;;30.73;16.60;;;;;;;2.13;72.88;96866.22;6241383;28;20508;-72
2021/12/27 13:06:45;;;;;;;27.03;16.03;;;;;;;2.10;73.26;96862.03;6233337;28;20348;-72
2021/12/27 13:09:49;;;;;;;28.03;16.07;;;;;;;2.07;72.85;96866.59;6251465;28;20530;-71
2021/12/27 13:13:03;;;;;;;27.27;16.63;;;;;;;1.98;72.40;96861.94;6250743;28;20734;-71
2021/12/27 13:16:05;;;;;;;29.13;16.87;;;;;;;1.82;72.39;96855.03;6249673;28;20242;-71
2021/12/27 13:19:08;;;;;;;27.93;16.33;;;;;;;1.66;73.00;96861.22;6252088;28;20732;-71
2021/12/27 13:22:10;;;;;;;25.53;16.63;;;;;;;1.42;74.18;96860.84;6252455;28;20695;-72
2021/12/27 13:25:15;;;;;;;24.23;15.20;;;;;;;1.24;74.43;96859.28;6252982;28;20234;-71
2021/12/27 13:28:25;;;;;;;28.27;15.57;;;;;;;1.13;75.12;96857.31;6251820;28;20231;-71
2021/12/27 13:31:28;;;;;;;24.60;14.83;;;;;;;0.99;75.81;96844.25;6250047;28;20604;-71
2021/12/27 13:34:30;;;;;;;26.53;15.97;;;;;;;0.96;75.66;96847.03;6230947;28;20238;-73
2021/12/27 13:37:37;;;;;;;21.97;13.40;;;;;;;0.95;76.08;96853.97;6236584;28;20832;-71
2021/12/27 13:40:44;;;;;;;24.27;12.93;;;;;;;0.99;75.52;96868.47;6254699;28;20238;-72
2021/12/27 13:43:59;;;;;;;19.93;12.60;;;;;;;1.01;74.64;96860.56;6254379;28;20816;-73
2021/12/27 13:47:09;;;;;;;19.63;11.80;;;;;;;0.98;73.65;96860.75;6252179;28;20248;-71
2021/12/27 13:50:11;;;;;;;17.50;11.03;;;;;;;1.00;73.92;96864.94;6205507;28;20240;-72
2021/12/27 13:53:17;;;;;;;15.90;10.27;;;;;;;1.02;73.83;96855.28;6252080;28;20714;-72
2021/12/27 13:56:19;;;;;;;16.67;10.83;;;;;;;0.98;72.08;96864.19;6256349;28;20453;-71
2021/12/27 13:59:24;;;;;;;22.63;10.77;;;;;;;0.97;72.75;96867.72;6256386;28;21128;-72
2021/12/27 14:02:44;;;;;;;19.87;11.10;;;;;;;0.97;72.95;96872.06;6253334;28;20731;-71
2021/12/27 14:05:52;;;;;;;17.83;10.37;;;;;;;0.86;72.45;96862.28;6233820;28;20236;-72
2021/12/27 14:08:57;;;;;;;19.53;11.27;;;;;;;0.73;73.21;96867.28;6238722;28;20718;-71
2021/12/27 14:12:02;;;;;;;21.73;11.37;;;;;;;0.54;73.41;96860.56;6254113;28;20226;-71